Time;durP1;ratioP1;P1;durP2;ratioP2;P2;SDS_P1;SDS_P2;PMS_P1;PMS_P2;Temp;Humidity;BMP_temperature;BMP_pressure;BME280_temperature;BME280_humidity;BME280_pressure;Samples;Min_cycle;Max_cycle;Signal;HPM_P1;HPM_P2
2023/09/04 00:00:23;;;;;;;1.20;0.80;;;;;;;17.68;100.00;98552.22;1226663;75;2912697;-63
2023/09/04 00:02:55;;;;;;;1.10;0.80;;;;;;;17.88;100.00;98557.53;1226007;75;2910561;-68
2023/09/04 00:05:28;;;;;;;0.80;0.80;;;;;;;17.91;100.00;98555.75;1225921;75;2916170;-66
2023/09/04 00:08:03;;;;;;;0.75;0.75;;;;;;;17.92;100.00;98557.28;1225629;75;2915191;-65
2023/09/04 00:10:36;;;;;;;0.70;0.65;;;;;;;17.95;100.00;98561.06;1225637;75;2919610;-65
2023/09/04 00:13:09;;;;;;;0.95;0.90;;;;;;;17.51;100.00;98562.50;1225878;75;2915868;-64
2023/09/04 00:15:42;;;;;;;1.45;1.20;;;;;;;17.53;100.00;98563.50;1226382;75;2918319;-66
2023/09/04 00:18:14;;;;;;;1.55;1.40;;;;;;;17.55;100.00;98576.84;1225900;75;2935666;-64
2023/09/04 00:20:48;;;;;;;1.20;1.00;;;;;;;17.77;100.00;98571.34;1225548;75;2916715;-67
2023/09/04 00:23:23;;;;;;;1.20;1.10;;;;;;;17.85;100.00;98579.94;1226033;75;2917615;-66
2023/09/04 00:25:55;;;;;;;1.20;1.10;;;;;;;17.92;100.00;98573.91;1225618;75;2910048;-65
2023/09/04 00:28:28;;;;;;;1.05;0.90;;;;;;;17.93;100.00;98578.19;1226035;75;2917040;-65
2023/09/04 00:31:01;;;;;;;2.10;0.85;;;;;;;17.93;100.00;98569.88;1226387;75;2917725;-66
2023/09/04 00:33:34;;;;;;;0.80;0.80;;;;;;;17.91;100.00;98571.63;1226588;75;2911197;-64
2023/09/04 00:36:07;;;;;;;0.90;0.80;;;;;;;18.01;100.00;98575.66;1226455;75;2913727;-66
2023/09/04 00:38:42;;;;;;;0.95;0.80;;;;;;;18.02;100.00;98575.16;1226222;75;2911623;-68
2023/09/04 00:41:15;;;;;;;1.90;1.00;;;;;;;17.67;100.00;98575.63;1226012;75;2911081;-66
2023/09/04 00:43:48;;;;;;;2.55;1.60;;;;;;;17.60;100.00;98576.84;1226389;75;2919214;-63
2023/09/04 00:46:21;;;;;;;1.25;1.10;;;;;;;17.85;100.00;98588.25;1226377;75;2911052;-66
2023/09/04 00:48:55;;;;;;;2.60;1.10;;;;;;;17.90;100.00;98581.97;1225641;75;2917652;-66
2023/09/04 00:51:27;;;;;;;1.15;1.00;;;;;;;17.88;100.00;98574.16;1226267;75;2911350;-65
2023/09/04 00:54:03;;;;;;;0.95;0.90;;;;;;;17.91;100.00;98579.94;1226263;75;2921783;-64
2023/09/04 00:56:36;;;;;;;0.75;0.75;;;;;;;17.92;100.00;98585.00;1226444;75;2918452;-66
2023/09/04 00:59:09;;;;;;;1.45;1.10;;;;;;;17.92;100.00;98585.00;1226046;75;2913080;-65
2023/09/04 01:01:42;;;;;;;0.80;0.80;;;;;;;17.87;100.00;98588.50;1226036;75;2915994;-66
2023/09/04 01:04:15;;;;;;;0.90;0.80;;;;;;;17.86;100.00;98598.81;1225817;75;2917534;-65
2023/09/04 01:06:47;;;;;;;0.75;0.75;;;;;;;17.89;100.00;98599.81;1225261;75;2916171;-65
2023/09/04 01:09:23;;;;;;;0.60;0.60;;;;;;;17.89;100.00;98599.81;1226002;75;2912350;-66
2023/09/04 01:12:05;;;;;;;1.80;0.90;;;;;;;17.90;100.00;98597.84;1225930;75;2910214;-64
2023/09/04 01:14:38;;;;;;;0.70;0.70;;;;;;;17.79;100.00;98604.84;1226691;75;2909083;-65
2023/09/04 01:17:11;;;;;;;1.15;0.80;;;;;;;17.72;100.00;98601.81;1226322;75;2910955;-66
2023/09/04 01:19:45;;;;;;;0.80;0.80;;;;;;;17.76;100.00;98605.09;1226718;75;2914028;-66
2023/09/04 01:22:21;;;;;;;1.05;0.95;;;;;;;17.78;100.00;98606.09;1226393;75;2907828;-64
2023/09/04 01:24:53;;;;;;;0.70;0.70;;;;;;;17.77;100.00;98599.03;1226169;75;2940610;-63
2023/09/04 01:27:31;;;;;;;0.70;0.70;;;;;;;17.79;100.00;98602.06;1225932;75;2911019;-67
2023/09/04 01:30:12;;;;;;;0.70;0.70;;;;;;;17.82;100.00;98592.03;1226885;75;2914548;-65
2023/09/04 01:32:52;;;;;;;0.90;0.90;;;;;;;17.85;100.00;98604.88;1225154;75;2932026;-66
2023/09/04 01:35:27;;;;;;;0.75;0.60;;;;;;;17.83;100.00;98591.53;1227037;75;2914869;-66
2023/09/04 01:38:03;;;;;;;0.70;0.70;;;;;;;17.64;100.00;98587.69;1226931;75;2912757;-63
2023/09/04 01:40:35;;;;;;;0.70;0.70;;;;;;;17.72;100.00;98582.41;1226204;75;2911630;-64
2023/09/04 01:43:08;;;;;;;0.80;0.80;;;;;;;17.75;100.00;98587.72;1226184;75;2912532;-64
2023/09/04 01:45:40;;;;;;;0.75;0.70;;;;;;;17.78;100.00;98595.03;1225165;75;2919926;-63
2023/09/04 01:48:13;;;;;;;0.75;0.75;;;;;;;17.69;100.00;98589.72;1227015;75;2916619;-65
2023/09/04 01:50:46;;;;;;;0.90;0.90;;;;;;;17.52;100.00;98589.69;1225641;75;2907713;-65
2023/09/04 01:53:21;;;;;;;1.10;0.80;;;;;;;17.59;100.00;98599.53;1226446;75;2915474;-64
2023/09/04 01:55:53;;;;;;;0.85;0.85;;;;;;;17.32;100.00;98585.13;1226313;75;2915246;-65
2023/09/04 01:58:26;;;;;;;1.40;1.20;;;;;;;17.34;100.00;98590.16;1226478;83;2908160;-66
2023/09/04 02:00:59;;;;;;;1.35;1.10;;;;;;;17.25;100.00;98589.13;1226110;75;2910477;-64
2023/09/04 02:03:31;;;;;;;1.10;1.00;;;;;;;17.33;100.00;98594.19;1226631;75;2917046;-64
2023/09/04 02:06:04;;;;;;;1.20;1.10;;;;;;;17.15;100.00;98585.06;1226385;75;2916493;-64
2023/09/04 02:08:40;;;;;;;1.45;1.35;;;;;;;17.04;100.00;98583.00;1226172;75;2912608;-66
2023/09/04 02:11:12;;;;;;;1.85;1.65;;;;;;;17.08;100.00;98582.78;1226514;75;2914741;-64
2023/09/04 02:13:45;;;;;;;1.35;1.10;;;;;;;17.29;100.00;98582.59;1226288;75;2903539;-64
2023/09/04 02:16:18;;;;;;;1.10;0.95;;;;;;;17.25;100.00;98586.34;1224964;75;2921510;-66
2023/09/04 02:18:51;;;;;;;1.35;1.00;;;;;;;17.16;100.00;98581.03;1226334;75;2916864;-65
2023/09/04 02:21:23;;;;;;;1.50;1.10;;;;;;;17.25;100.00;98583.59;1226257;75;2921606;-67
2023/09/04 02:23:58;;;;;;;0.95;0.85;;;;;;;17.21;100.00;98582.31;1225321;75;2916099;-65
2023/09/04 02:26:31;;;;;;;0.80;0.80;;;;;;;17.19;100.00;98579.28;1226152;75;2910385;-65
2023/09/04 02:29:04;;;;;;;0.80;0.80;;;;;;;17.13;100.00;98576.50;1225190;75;2931995;-64
2023/09/04 02:31:36;;;;;;;0.80;0.80;;;;;;;17.12;100.00;98574.22;1226131;75;2911404;-64
2023/09/04 02:34:09;;;;;;;0.70;0.70;;;;;;;17.01;100.00;98572.94;1224872;75;2913003;-68
2023/09/04 02:36:42;;;;;;;0.80;0.80;;;;;;;16.98;100.00;98551.81;1225579;75;2920011;-65
2023/09/04 02:39:17;;;;;;;1.25;1.05;;;;;;;16.75;100.00;98552.94;1225953;75;2916984;-65
2023/09/04 02:41:49;;;;;;;0.75;0.75;;;;;;;16.80;100.00;98547.47;1225661;75;2915762;-63
2023/09/04 02:44:22;;;;;;;0.90;0.70;;;;;;;16.80;100.00;98552.25;1225961;75;2920626;-63
2023/09/04 02:46:55;;;;;;;0.80;0.80;;;;;;;16.83;100.00;98548.47;1225367;75;2916100;-66
2023/09/04 02:49:27;;;;;;;0.70;0.70;;;;;;;16.80;100.00;98547.47;1225258;75;2920279;-63
2023/09/04 02:52:00;;;;;;;1.35;0.90;;;;;;;16.68;100.00;98553.41;1226000;75;2913028;-62
2023/09/04 02:54:35;;;;;;;1.95;0.80;;;;;;;16.72;100.00;98551.94;1225812;75;2924849;-63
2023/09/04 02:57:08;;;;;;;0.95;0.95;;;;;;;16.72;100.00;98551.94;1224671;75;2914845;-63
2023/09/04 02:59:41;;;;;;;1.40;0.90;;;;;;;16.67;100.00;98551.88;1224817;75;2918400;-64
2023/09/04 03:02:13;;;;;;;0.80;0.80;;;;;;;16.49;100.00;98545.53;1225910;75;2909031;-67
2023/09/04 03:04:46;;;;;;;1.25;1.15;;;;;;;16.49;100.00;98553.81;1224919;75;2951737;-64
2023/09/04 03:07:19;;;;;;;1.95;1.50;;;;;;;16.41;100.00;98552.78;1225095;75;2919784;-66
2023/09/04 03:09:58;;;;;;;1.10;1.00;;;;;;;16.45;100.00;98544.25;1225583;75;2914021;-66
2023/09/04 03:12:33;;;;;;;1.20;1.10;;;;;;;16.37;100.00;98541.19;1224439;75;2914664;-65
2023/09/04 03:15:09;;;;;;;1.20;1.00;;;;;;;16.30;100.00;98550.69;1224903;75;2920223;-64
2023/09/04 03:17:42;;;;;;;1.20;1.10;;;;;;;16.31;100.00;98546.69;1225133;75;2924498;-63
2023/09/04 03:20:19;;;;;;;1.50;1.10;;;;;;;16.26;100.00;98552.16;1225338;75;2918499;-63
2023/09/04 03:22:52;;;;;;;1.20;1.10;;;;;;;16.19;100.00;98558.94;1224895;75;2912646;-64
2023/09/04 03:25:27;;;;;;;0.95;0.95;;;;;;;16.25;100.00;98556.94;1225639;75;2920821;-65
2023/09/04 03:27:59;;;;;;;1.15;1.05;;;;;;;16.24;100.00;98562.97;1225024;75;2925953;-65
2023/09/04 03:30:32;;;;;;;1.05;1.00;;;;;;;16.19;100.00;98561.69;1225158;75;2915491;-63
2023/09/04 03:33:05;;;;;;;1.15;1.05;;;;;;;16.16;100.00;98566.19;1225381;67;2924047;-64
2023/09/04 03:35:37;;;;;;;0.80;0.80;;;;;;;16.17;100.00;98567.69;1224793;75;2922234;-64
2023/09/04 03:38:10;;;;;;;2.75;1.00;;;;;;;16.05;100.00;98563.34;1224285;75;2920037;-68
2023/09/04 03:40:46;;;;;;;0.90;0.90;;;;;;;15.99;100.00;98568.06;1224594;75;2926587;-66
2023/09/04 03:43:19;;;;;;;2.05;0.80;;;;;;;15.97;100.00;98573.34;1223637;75;2922993;-66
2023/09/04 03:45:51;;;;;;;0.95;0.95;;;;;;;15.92;100.00;98568.50;1224144;75;2926098;-64
2023/09/04 03:48:24;;;;;;;1.30;1.20;;;;;;;15.79;100.00;98565.38;1224722;75;2919618;-65
2023/09/04 03:51:00;;;;;;;1.15;1.00;;;;;;;15.92;100.00;98569.28;1224092;75;2919423;-65
2023/09/04 03:53:33;;;;;;;1.00;0.90;;;;;;;15.90;100.00;98569.00;1224638;75;2922673;-65
2023/09/04 03:56:11;;;;;;;3.15;1.10;;;;;;;15.85;100.00;98585.50;1224767;75;2944036;-65
2023/09/04 03:58:43;;;;;;;1.20;1.10;;;;;;;15.82;100.00;98589.25;1225392;75;2922752;-65
2023/09/04 04:01:16;;;;;;;1.40;1.30;;;;;;;15.83;100.00;98593.53;1224306;75;2920851;-65
2023/09/04 04:03:49;;;;;;;1.90;1.55;;;;;;;15.63;100.00;98591.56;1223555;75;2920551;-64
2023/09/04 04:06:22;;;;;;;1.85;1.60;;;;;;;15.70;100.00;98586.38;1224611;75;2921037;-63
2023/09/04 04:08:56;;;;;;;1.90;1.40;;;;;;;15.75;100.00;98587.69;1221829;75;2975189;-65
2023/09/04 04:11:31;;;;;;;1.30;1.20;;;;;;;15.85;100.00;98591.03;1224465;75;2920307;-64
2023/09/04 04:14:04;;;;;;;1.10;1.00;;;;;;;15.84;100.00;98593.03;1225212;75;2921509;-64
2023/09/04 04:16:37;;;;;;;1.45;1.35;;;;;;;15.71;100.00;98600.97;1224638;75;2919389;-66
2023/09/04 04:19:10;;;;;;;1.35;1.15;;;;;;;15.42;100.00;98599.16;1224536;75;2920959;-66
2023/09/04 04:21:42;;;;;;;1.45;1.30;;;;;;;15.45;100.00;98603.69;1225007;75;2919419;-64
2023/09/04 04:24:15;;;;;;;1.60;1.50;;;;;;;15.52;100.00;98600.50;1225168;75;2921617;-64
2023/09/04 04:26:51;;;;;;;1.50;1.40;;;;;;;15.48;100.00;98591.66;1224503;75;2927926;-65
2023/09/04 04:29:23;;;;;;;2.20;1.30;;;;;;;15.62;100.00;98596.31;1223994;75;2920818;-66
2023/09/04 04:31:57;;;;;;;1.40;1.10;;;;;;;15.63;100.00;98603.34;1224619;75;2924114;-65
2023/09/04 04:34:29;;;;;;;1.80;1.05;;;;;;;15.66;100.00;98610.69;1224409;75;2922042;-65
2023/09/04 04:37:02;;;;;;;1.30;1.20;;;;;;;15.69;100.00;98612.47;1224117;75;2922592;-64
2023/09/04 04:39:35;;;;;;;1.15;0.95;;;;;;;15.70;100.00;98611.22;1224960;75;2921429;-62
2023/09/04 04:42:10;;;;;;;1.00;0.90;;;;;;;15.73;100.00;98609.53;1223859;75;2925096;-65
2023/09/04 04:44:43;;;;;;;1.25;1.15;;;;;;;15.74;100.00;98611.03;1222106;75;2948188;-63
2023/09/04 04:47:16;;;;;;;1.05;0.95;;;;;;;15.81;100.00;98607.06;1223686;75;2927843;-67
2023/09/04 04:49:48;;;;;;;1.60;1.20;;;;;;;15.81;100.00;98607.81;1224073;75;2922059;-62
2023/09/04 04:52:21;;;;;;;1.30;1.20;;;;;;;15.69;100.00;98614.47;1223774;75;2933753;-64
2023/09/04 04:54:53;;;;;;;3.00;1.60;;;;;;;15.56;100.00;98620.34;1223978;75;2929133;-64
2023/09/04 04:57:29;;;;;;;2.45;1.95;;;;;;;15.47;100.00;98626.78;1224233;75;2927512;-65
2023/09/04 05:00:06;;;;;;;1.90;1.60;;;;;;;15.61;100.00;98621.66;1224615;75;2927224;-67
2023/09/04 05:02:39;;;;;;;1.30;1.20;;;;;;;15.86;100.00;98628.47;1225039;75;2921734;-63
2023/09/04 05:05:12;;;;;;;2.45;1.50;;;;;;;15.83;100.00;98627.44;1224783;75;2931599;-66
2023/09/04 05:07:44;;;;;;;1.40;1.30;;;;;;;16.00;100.00;98627.56;1224885;75;2920232;-63
2023/09/04 05:10:17;;;;;;;1.40;1.30;;;;;;;16.18;100.00;98629.97;1224224;75;2927359;-65
2023/09/04 05:12:52;;;;;;;1.70;1.30;;;;;;;16.05;100.00;98628.88;1224262;75;2929899;-64
2023/09/04 05:15:25;;;;;;;1.80;1.50;;;;;;;16.32;100.00;98625.56;1225079;75;2917513;-66
2023/09/04 05:17:57;;;;;;;1.50;1.30;;;;;;;16.45;100.00;98635.44;1224666;75;2915329;-65
2023/09/04 05:20:30;;;;;;;1.75;1.50;;;;;;;16.15;100.00;98642.00;1224274;75;2899092;-64
2023/09/04 05:23:03;;;;;;;2.15;1.35;;;;;;;16.50;100.00;98643.00;1223949;75;2926854;-65
2023/09/04 05:25:35;;;;;;;1.35;1.25;;;;;;;16.58;100.00;98639.31;1224516;75;2922074;-66
2023/09/04 05:28:12;;;;;;;1.45;1.20;;;;;;;16.68;100.00;98642.66;1223788;75;2923154;-69
2023/09/04 05:30:44;;;;;;;1.40;1.30;;;;;;;16.69;100.00;98640.63;1224348;75;2922489;-65
2023/09/04 05:33:17;;;;;;;1.80;1.65;;;;;;;16.48;100.00;98642.78;1224620;75;2928933;-66
2023/09/04 05:35:58;;;;;;;1.80;1.60;;;;;;;16.76;100.00;98646.47;1224330;75;2948062;-66
2023/09/04 05:38:30;;;;;;;1.75;1.50;;;;;;;16.77;100.00;98652.75;1223035;75;2930188;-66
2023/09/04 05:41:03;;;;;;;3.15;1.55;;;;;;;16.91;100.00;98642.78;1224282;75;2928383;-66
2023/09/04 05:43:38;;;;;;;1.40;1.30;;;;;;;16.98;100.00;98643.09;1224650;75;2918462;-68
2023/09/04 05:46:11;;;;;;;1.10;1.00;;;;;;;17.01;100.00;98636.56;1223530;75;2927514;-65
2023/09/04 05:48:44;;;;;;;1.75;1.00;;;;;;;17.22;100.00;98634.41;1223144;75;2931482;-66
2023/09/04 05:51:17;;;;;;;0.90;0.85;;;;;;;17.25;100.00;98641.72;1224213;75;2921859;-65
2023/09/04 05:53:50;;;;;;;2.00;1.60;;;;;;;17.12;100.00;98648.94;1223234;75;2928199;-65
2023/09/04 05:56:22;;;;;;;5.40;4.90;;;;;;;17.30;100.00;98639.47;1224156;75;2912181;-64
2023/09/04 05:58:57;;;;;;;5.10;4.40;;;;;;;17.44;100.00;98635.75;1224942;75;2927111;-64
2023/09/04 06:01:30;;;;;;;4.35;3.90;;;;;;;17.48;100.00;98638.25;1223810;75;2928234;-63
2023/09/04 06:04:03;;;;;;;5.40;3.70;;;;;;;17.13;100.00;98640.16;1223708;75;2920062;-66
2023/09/04 06:06:37;;;;;;;4.55;2.95;;;;;;;17.11;100.00;98647.44;1224703;75;2921304;-66
2023/09/04 06:09:10;;;;;;;4.20;3.40;;;;;;;17.11;100.00;98642.66;1224208;75;2937094;-64
2023/09/04 06:11:42;;;;;;;4.15;3.25;;;;;;;17.43;100.00;98639.75;1224293;75;2920589;-63
2023/09/04 06:14:18;;;;;;;4.30;3.00;;;;;;;17.36;100.00;98632.69;1224551;75;2923702;-64
2023/09/04 06:16:50;;;;;;;4.20;3.15;;;;;;;17.51;100.00;98628.94;1223684;75;2939566;-63
2023/09/04 06:19:23;;;;;;;3.55;2.80;;;;;;;17.60;100.00;98631.47;1224850;75;2922354;-65
2023/09/04 06:21:55;;;;;;;3.80;3.40;;;;;;;17.82;100.00;98639.88;1224337;75;2921859;-64
2023/09/04 06:24:28;;;;;;;3.75;3.05;;;;;;;17.72;100.00;98641.31;1224899;75;2920907;-64
2023/09/04 06:27:01;;;;;;;3.75;2.85;;;;;;;17.70;100.00;98635.53;1225004;75;2923209;-64
2023/09/04 06:29:36;;;;;;;3.50;3.10;;;;;;;17.83;100.00;98641.38;1224485;75;2918779;-65
2023/09/04 06:32:10;;;;;;;4.85;3.00;;;;;;;17.85;100.00;98646.44;1224639;75;2915671;-65
2023/09/04 06:34:43;;;;;;;3.40;2.45;;;;;;;18.08;100.00;98645.19;1225174;75;2919113;-66
2023/09/04 06:37:16;;;;;;;2.75;2.30;;;;;;;18.23;100.00;98639.41;1224596;75;2921103;-64
2023/09/04 06:39:48;;;;;;;3.90;2.10;;;;;;;18.24;100.00;98643.69;1223658;75;2924993;-65
2023/09/04 06:42:21;;;;;;;3.00;2.40;;;;;;;18.44;100.00;98644.69;1223876;75;2926230;-65
2023/09/04 06:44:56;;;;;;;3.05;2.50;;;;;;;18.61;100.00;98639.84;1224338;75;2921034;-67
2023/09/04 06:47:28;;;;;;;2.15;1.70;;;;;;;19.03;100.00;98645.59;1223955;75;2929684;-64
2023/09/04 06:50:04;;;;;;;3.80;2.90;;;;;;;18.69;100.00;98651.97;1224221;75;2925017;-66
2023/09/04 06:52:36;;;;;;;6.15;4.30;;;;;;;18.97;100.00;98651.16;1224526;75;2924260;-65
2023/09/04 06:55:11;;;;;;;24.75;19.25;;;;;;;19.04;100.00;98647.84;1223657;75;2925157;-65
2023/09/04 06:57:43;;;;;;;8.70;7.20;;;;;;;19.33;100.00;98659.59;1224355;75;2918741;-65
2023/09/04 07:00:19;;;;;;;5.70;3.90;;;;;;;19.08;100.00;98656.69;1223818;75;2922146;-67
2023/09/04 07:02:52;;;;;;;4.90;3.35;;;;;;;19.12;100.00;98648.84;1224273;75;2915486;-66
2023/09/04 07:05:25;;;;;;;5.85;3.35;;;;;;;18.86;100.00;98648.44;1224206;75;2912101;-65
2023/09/04 07:07:58;;;;;;;3.70;2.90;;;;;;;19.42;100.00;98651.00;1211861;75;3163768;-64
2023/09/04 07:10:30;;;;;;;3.15;2.60;;;;;;;19.21;100.00;98652.59;1196256;75;3955464;-66
2023/09/04 07:13:04;;;;;;;5.00;3.00;;;;;;;19.05;100.00;98659.69;1225215;75;2919992;-63
2023/09/04 07:15:40;;;;;;;3.50;2.65;;;;;;;19.44;100.00;98662.34;1222525;75;2939010;-65
2023/09/04 07:18:13;;;;;;;2.65;2.35;;;;;;;19.88;100.00;98657.06;1224997;75;2917558;-67
2023/09/04 07:20:45;;;;;;;6.25;2.85;;;;;;;19.48;100.00;98653.72;1224443;75;2926064;-66
2023/09/04 07:23:18;;;;;;;3.25;2.85;;;;;;;19.79;100.00;98649.78;1224518;75;2920342;-64
2023/09/04 07:25:51;;;;;;;2.30;2.10;;;;;;;20.03;100.00;98651.91;1225172;75;2914707;-67
2023/09/04 07:28:23;;;;;;;4.10;3.10;;;;;;;19.64;100.00;98641.03;1225560;75;2919387;-65
2023/09/04 07:31:19;;;;;;;4.30;3.70;;;;;;;19.82;100.00;98651.56;1224305;75;2920341;-64
2023/09/04 07:33:53;;;;;;;6.60;3.35;;;;;;;19.63;100.00;98651.41;1224834;75;2917592;-64
2023/09/04 07:36:26;;;;;;;4.45;3.20;;;;;;;19.49;100.00;98650.44;1224391;75;2920732;-67
2023/09/04 07:38:58;;;;;;;5.85;4.00;;;;;;;19.58;100.00;98652.94;1224763;75;2923872;-67
2023/09/04 07:41:31;;;;;;;8.50;6.15;;;;;;;19.93;100.00;98656.28;1224845;75;2924118;-67
2023/09/04 07:44:04;;;;;;;3.50;3.00;;;;;;;20.04;100.00;98658.25;1224639;75;2922010;-68
2023/09/04 07:46:39;;;;;;;5.10;3.90;;;;;;;19.93;100.00;98654.25;1224759;75;2919497;-66
2023/09/04 07:49:12;;;;;;;4.95;4.20;;;;;;;20.21;100.00;98656.84;1225410;75;2915157;-68
2023/09/04 07:51:45;;;;;;;3.20;2.60;;;;;;;20.26;100.00;98652.50;1224378;75;2925974;-65
2023/09/04 07:54:17;;;;;;;4.15;3.00;;;;;;;19.36;100.00;98664.91;1224113;75;2918402;-65
2023/09/04 07:56:50;;;;;;;4.30;2.70;;;;;;;20.05;100.00;98662.53;1219413;75;2927746;-64
2023/09/04 07:59:27;;;;;;;3.30;2.80;;;;;;;19.78;100.00;98660.16;1223308;75;2913736;-66
2023/09/04 08:02:05;;;;;;;3.60;2.65;;;;;;;19.93;100.00;98659.81;1222018;75;2916673;-64
2023/09/04 08:04:37;;;;;;;3.50;2.70;;;;;;;20.01;100.00;98665.56;1209537;75;4077248;-64
2023/09/04 08:07:10;;;;;;;4.05;3.05;;;;;;;19.87;100.00;98672.25;1224417;75;2917990;-66
2023/09/04 08:09:43;;;;;;;3.40;2.90;;;;;;;19.88;100.00;98668.19;1223582;75;2921257;-65
2023/09/04 08:12:16;;;;;;;4.30;2.90;;;;;;;20.06;100.00;98667.56;1223333;75;2924948;-64
2023/09/04 08:14:51;;;;;;;3.00;2.70;;;;;;;19.95;100.00;98662.84;1223391;75;2927908;-67
2023/09/04 08:17:26;;;;;;;2.80;2.35;;;;;;;20.29;100.00;98654.25;1223952;75;2926621;-65
2023/09/04 08:19:59;;;;;;;3.20;2.75;;;;;;;20.07;100.00;98654.41;1224082;75;2923230;-65
2023/09/04 08:22:32;;;;;;;3.55;3.10;;;;;;;20.37;100.00;98654.41;1224664;75;2923344;-67
2023/09/04 08:25:05;;;;;;;4.50;3.15;;;;;;;20.21;100.00;98644.97;1208282;75;4099349;-67
2023/09/04 08:27:37;;;;;;;4.10;2.80;;;;;;;20.35;100.00;98654.22;1183748;75;5632599;-67
2023/09/04 08:30:12;;;;;;;3.50;3.20;;;;;;;20.42;100.00;98656.44;1192447;75;5214348;-66
2023/09/04 08:32:47;;;;;;;3.95;2.60;;;;;;;20.53;100.00;98666.69;1223624;75;2919062;-66
2023/09/04 08:35:20;;;;;;;4.90;2.60;;;;;;;20.10;100.00;98653.38;1224694;75;2914027;-64
2023/09/04 08:37:53;;;;;;;5.40;2.95;;;;;;;20.07;100.00;98657.19;1224839;75;2926326;-67
2023/09/04 08:40:25;;;;;;;3.40;2.80;;;;;;;20.40;100.00;98656.19;1225210;75;2923910;-67
2023/09/04 08:42:59;;;;;;;3.65;2.80;;;;;;;20.95;99.17;98664.50;1224961;75;2920348;-66
2023/09/04 08:45:33;;;;;;;6.45;3.00;;;;;;;21.07;96.85;98649.22;1224607;75;2924908;-67
2023/09/04 08:48:11;;;;;;;2.65;2.45;;;;;;;21.82;90.04;98656.13;1224464;75;2929242;-66
2023/09/04 08:50:45;;;;;;;3.70;3.10;;;;;;;21.43;88.06;98649.81;1225205;75;2919924;-66
2023/09/04 08:53:18;;;;;;;2.85;2.50;;;;;;;21.68;84.62;98647.69;1224907;75;2922132;-64
2023/09/04 08:55:50;;;;;;;2.50;2.25;;;;;;;21.28;86.90;98643.88;1224818;75;2921924;-68
2023/09/04 08:58:23;;;;;;;2.85;2.55;;;;;;;21.61;83.60;98648.28;1225773;75;2918844;-67
2023/09/04 09:00:56;;;;;;;3.40;2.65;;;;;;;21.63;83.88;98642.22;1225009;75;2924688;-67
2023/09/04 09:03:32;;;;;;;4.30;2.40;;;;;;;21.66;81.77;98641.13;1224500;75;2915509;-68
2023/09/04 09:06:05;;;;;;;2.80;2.20;;;;;;;22.34;77.93;98640.88;1225074;68;2916561;-66
2023/09/04 09:08:38;;;;;;;3.30;2.35;;;;;;;21.74;77.68;98632.91;1224737;75;2917754;-67
2023/09/04 09:11:11;;;;;;;2.90;2.40;;;;;;;21.86;75.90;98625.91;1224580;75;2921403;-68
2023/09/04 09:13:44;;;;;;;3.10;2.25;;;;;;;22.42;74.04;98621.50;1225309;75;2922347;-66
2023/09/04 09:16:22;;;;;;;1.90;1.70;;;;;;;23.01;69.72;98627.75;1223029;75;2911663;-65
2023/09/04 09:19:00;;;;;;;6.30;2.40;;;;;;;23.59;70.62;98620.44;1225203;75;2937448;-68
2023/09/04 09:21:34;;;;;;;2.90;2.10;;;;;;;23.92;66.81;98618.22;1225005;75;2919243;-67
2023/09/04 09:24:18;;;;;;;2.70;2.35;;;;;;;23.55;67.26;98620.06;1224403;75;2919483;-65
2023/09/04 09:26:52;;;;;;;2.80;2.00;;;;;;;23.69;67.68;98623.53;1224060;75;2925724;-67
2023/09/04 09:29:27;;;;;;;2.45;2.05;;;;;;;23.89;65.76;98622.84;1223656;75;2923104;-66
2023/09/04 09:32:00;;;;;;;3.25;2.10;;;;;;;24.28;65.86;98615.53;1223967;75;2928527;-65
2023/09/04 09:34:39;;;;;;;2.90;2.25;;;;;;;24.18;65.54;98618.09;1225046;75;2915663;-68
2023/09/04 09:37:11;;;;;;;2.75;2.30;;;;;;;24.09;64.67;98612.22;1224418;75;2918885;-64
2023/09/04 09:39:45;;;;;;;3.70;2.25;;;;;;;24.91;62.97;98609.09;1225412;75;2918408;-65
2023/09/04 09:42:17;;;;;;;2.35;1.75;;;;;;;25.12;61.57;98606.97;1224545;75;2921106;-64
2023/09/04 09:44:50;;;;;;;2.60;1.95;;;;;;;25.80;59.85;98593.72;1224737;75;2922336;-67
2023/09/04 09:47:24;;;;;;;3.40;2.30;;;;;;;24.88;60.73;98597.69;1223538;75;2927620;-64
2023/09/04 09:50:02;;;;;;;2.10;1.90;;;;;;;25.61;61.66;98603.22;1224762;75;2924964;-66
2023/09/04 09:52:35;;;;;;;;;;;;;;;25.36;61.52;98605.03;1226265;75;2916921;-66
2023/09/04 09:55:26;;;;;;;2.30;1.90;;;;;;;25.88;60.60;98603.69;1224664;75;2925174;-65
2023/09/04 09:57:59;;;;;;;2.85;1.95;;;;;;;26.29;57.56;98606.69;1224455;75;2923996;-66
2023/09/04 10:00:32;;;;;;;3.00;2.35;;;;;;;26.06;57.94;98604.63;1224601;75;2924543;-67
2023/09/04 10:03:05;;;;;;;3.50;2.10;;;;;;;27.07;nan;98608.84;1223926;75;2929327;-67
2023/09/04 10:05:43;;;;;;;2.40;2.00;;;;;;;26.11;56.72;98606.50;1224618;75;2923194;-67
2023/09/04 10:08:16;;;;;;;2.05;1.60;;;;;;;27.21;55.14;98600.94;1223921;75;2921482;-67
2023/09/04 10:10:51;;;;;;;2.30;1.70;;;;;;;28.08;52.24;98597.84;1223337;75;2933771;-66
2023/09/04 10:13:30;;;;;;;3.05;2.35;;;;;;;28.29;50.88;98591.84;1224638;75;2929792;-65
2023/09/04 10:16:07;;;;;;;2.55;1.85;;;;;;;28.61;49.95;98588.19;1224120;75;2923726;-66
2023/09/04 10:18:43;;;;;;;2.35;1.65;;;;;;;29.14;48.94;98586.88;1224614;75;2923364;-67
2023/09/04 10:21:23;;;;;;;1.40;1.30;;;;;;;29.31;50.15;98584.00;1224944;75;2924376;-66
2023/09/04 10:24:02;;;;;;;5.00;2.10;;;;;;;27.04;52.81;98586.75;1224221;75;2921726;-68
2023/09/04 10:26:41;;;;;;;2.00;1.60;;;;;;;26.63;54.19;98583.84;1224730;75;2923890;-66
2023/09/04 10:29:20;;;;;;;3.10;1.80;;;;;;;26.19;54.91;98583.31;1224653;75;2920343;-66
2023/09/04 10:31:54;;;;;;;3.65;1.50;;;;;;;27.52;52.50;98583.94;1224855;75;2922598;-66
2023/09/04 10:34:27;;;;;;;3.00;1.35;;;;;;;28.65;49.56;98578.00;1224591;75;2923462;-66
2023/09/04 10:37:03;;;;;;;2.75;2.30;;;;;;;29.10;47.03;98578.06;1224129;75;2927809;-65
2023/09/04 10:39:36;;;;;;;3.25;2.70;;;;;;;28.99;47.69;98578.56;1222794;75;2934762;-64
2023/09/04 10:42:10;;;;;;;6.30;5.70;;;;;;;29.20;48.15;98575.31;1212866;75;3204574;-65
2023/09/04 10:44:53;;;;;;;2.00;1.60;;;;;;;29.22;47.67;98573.41;1056157;75;8874497;-68
2023/09/04 10:47:26;;;;;;;1.75;1.40;;;;;;;29.11;46.27;98585.22;1222247;75;2914272;-65
2023/09/04 10:49:59;;;;;;;1.40;1.30;;;;;;;29.02;46.29;98577.41;1222906;75;2928218;-68
2023/09/04 10:52:44;;;;;;;3.05;1.70;;;;;;;27.10;48.08;98582.41;1223543;75;2919066;-68
2023/09/04 10:55:17;;;;;;;3.45;2.80;;;;;;;28.19;48.86;98583.28;1222785;75;2929627;-66
2023/09/04 10:58:01;;;;;;;4.25;2.80;;;;;;;26.94;49.05;98581.72;1220779;75;2943110;-67
2023/09/04 11:00:36;;;;;;;2.75;1.90;;;;;;;26.58;49.26;98582.00;1222240;75;2922638;-66
2023/09/04 11:03:21;;;;;;;2.65;1.60;;;;;;;25.83;50.93;98573.75;1223174;75;2925624;-67
2023/09/04 11:06:20;;;;;;;5.95;4.85;;;;;;;27.72;49.61;98576.50;1223571;75;2927821;-66
2023/09/04 11:08:58;;;;;;;4.05;3.20;;;;;;;27.90;47.45;98572.47;1203131;75;4107233;-69
2023/09/04 11:11:35;;;;;;;2.20;1.80;;;;;;;29.52;46.16;98566.63;1197606;75;5035430;-69
2023/09/04 11:14:10;;;;;;;1.90;1.50;;;;;;;29.12;45.47;98561.31;1132753;75;10196289;-66
2023/09/04 11:16:48;;;;;;;3.55;1.60;;;;;;;28.50;47.43;98564.06;1225334;75;2820033;-64
2023/09/04 11:19:24;;;;;;;2.15;1.50;;;;;;;27.94;46.83;98555.91;1224521;75;2923323;-69
2023/09/04 11:21:56;;;;;;;2.15;1.55;;;;;;;26.85;49.22;98554.22;1224915;75;2921370;-67
2023/09/04 11:24:34;;;;;;;2.00;1.40;;;;;;;28.46;47.30;98552.47;1221751;75;2980090;-66
2023/09/04 11:27:07;;;;;;;1.70;1.30;;;;;;;29.52;45.38;98541.22;1224829;75;2923782;-68
2023/09/04 11:29:40;;;;;;;3.30;1.60;;;;;;;27.60;47.84;98557.22;1223884;75;2932130;-68
2023/09/04 11:32:13;;;;;;;1.75;1.30;;;;;;;27.94;46.62;98547.44;1224042;75;2918906;-67
2023/09/04 11:34:47;;;;;;;1.50;1.20;;;;;;;29.57;44.26;98542.28;1224263;75;2925938;-66
2023/09/04 11:37:20;;;;;;;1.35;1.15;;;;;;;28.75;45.02;98541.44;1222105;75;2928725;-66
2023/09/04 11:40:00;;;;;;;1.45;1.00;;;;;;;30.40;44.11;98546.44;1222343;75;2915599;-66
2023/09/04 11:42:33;;;;;;;3.30;1.60;;;;;;;27.94;45.10;98546.72;1225061;75;2918082;-66